Time;durP1;ratioP1;P1;durP2;ratioP2;P2;SDS_P1;SDS_P2;PMS_P1;PMS_P2;Temp;Humidity;BMP_temperature;BMP_pressure;BME280_temperature;BME280_humidity;BME280_pressure;Samples;Min_cycle;Max_cycle;Signal;HPM_P1;HPM_P2
2023/04/01 00:01:48;;;;;;;1.57;0.30;;;;;;;9.10;89.70;97412.91;4960473;28;20243;-52
2023/04/01 00:04:15;;;;;;;4.60;0.80;;;;;;;9.03;89.28;97431.00;4957860;28;20240;-50
2023/04/01 00:06:42;;;;;;;5.80;1.10;;;;;;;8.99;90.28;97427.94;4960964;28;20232;-53
2023/04/01 00:09:08;;;;;;;1.83;0.50;;;;;;;8.96;90.29;97423.06;4958597;28;20720;-50
2023/04/01 00:11:35;;;;;;;4.27;0.60;;;;;;;8.96;91.53;97430.09;4961578;28;20618;-53
2023/04/01 00:14:01;;;;;;;5.43;0.70;;;;;;;8.97;89.33;97418.69;4972440;28;20606;-52
2023/04/01 00:16:28;;;;;;;2.07;0.50;;;;;;;9.02;89.65;97421.56;4960568;28;20633;-52
2023/04/01 00:18:56;;;;;;;4.50;0.70;;;;;;;8.90;91.60;97434.16;4955369;28;20231;-52
2023/04/01 00:21:23;;;;;;;6.43;0.80;;;;;;;8.85;92.24;97413.03;4958446;28;20257;-51
2023/04/01 00:23:49;;;;;;;2.93;0.50;;;;;;;8.79;92.01;97418.91;4959046;28;20222;-53
2023/04/01 00:26:18;;;;;;;3.17;0.50;;;;;;;8.77;91.15;97419.09;4958935;28;20287;-52
2023/04/01 00:28:47;;;;;;;2.33;0.60;;;;;;;8.80;91.28;97402.31;4961245;28;20258;-52
2023/04/01 00:31:14;;;;;;;2.93;0.60;;;;;;;8.83;90.71;97420.19;4956730;28;20258;-53
2023/04/01 00:33:42;;;;;;;1.97;0.30;;;;;;;8.84;89.73;97408.81;4960973;28;20353;-53
2023/04/01 00:36:12;;;;;;;2.93;0.60;;;;;;;8.83;90.38;97408.03;4955982;28;20267;-51
2023/04/01 00:38:39;;;;;;;1.30;0.30;;;;;;;8.83;90.04;97400.22;4959704;28;20241;-53
2023/04/01 00:41:06;;;;;;;4.50;0.57;;;;;;;8.84;89.86;97408.81;4956710;28;20230;-54
2023/04/01 00:43:34;;;;;;;0.90;0.30;;;;;;;8.82;90.30;97398.59;4962132;28;20242;-53
2023/04/01 00:46:01;;;;;;;1.50;0.30;;;;;;;8.84;89.10;97385.41;4952996;28;20236;-54
2023/04/01 00:48:30;;;;;;;1.93;0.40;;;;;;;8.88;89.31;97397.09;4957550;28;20305;-53
2023/04/01 00:51:03;;;;;;;3.57;0.60;;;;;;;8.84;89.04;97403.63;4966592;28;20235;-52
2023/04/01 00:53:33;;;;;;;2.13;0.70;;;;;;;8.82;88.45;97406.41;4964429;28;20227;-55
2023/04/01 00:56:03;;;;;;;0.60;0.30;;;;;;;8.82;88.61;97402.97;4961722;28;20711;-53
2023/04/01 00:58:34;;;;;;;3.40;0.40;;;;;;;8.85;87.07;97400.84;4968344;28;20242;-50
2023/04/01 01:01:01;;;;;;;2.47;0.50;;;;;;;8.83;87.90;97404.59;4976755;28;20239;-51
2023/04/01 01:03:29;;;;;;;2.57;0.40;;;;;;;8.74;88.99;97413.41;4980912;28;20234;-51
2023/04/01 01:06:23;;;;;;;1.40;0.20;;;;;;;8.75;87.08;97415.03;4961888;28;20222;-52
2023/04/01 01:09:26;;;;;;;2.97;0.30;;;;;;;8.73;87.41;97411.78;4979377;28;20730;-51
2023/04/01 01:12:01;;;;;;;2.07;0.30;;;;;;;8.73;87.06;97415.22;4966481;28;20227;-54
2023/04/01 01:14:41;;;;;;;0.70;0.20;;;;;;;8.73;86.17;97414.38;4964840;28;20281;-52
2023/04/01 01:17:15;;;;;;;0.33;0.10;;;;;;;8.73;86.55;97410.00;4963156;28;20233;-53
2023/04/01 01:20:20;;;;;;;0.77;0.10;;;;;;;8.77;85.40;97400.06;4965769;28;20244;-52
2023/04/01 01:23:01;;;;;;;1.37;0.30;;;;;;;8.75;84.81;97399.41;4975524;28;20238;-53
2023/04/01 01:25:41;;;;;;;1.87;0.30;;;;;;;8.76;85.93;97401.03;4968095;28;20558;-52
2023/04/01 01:28:25;;;;;;;1.07;0.30;;;;;;;8.73;85.66;97417.00;4967385;28;20289;-53
2023/04/01 01:31:01;;;;;;;0.00;0.00;;;;;;;8.77;84.72;97408.69;4966566;28;20234;-52
2023/04/01 01:33:43;;;;;;;0.53;0.20;;;;;;;8.71;86.10;97409.38;4964883;28;20230;-52
2023/04/01 01:36:14;;;;;;;0.80;0.10;;;;;;;8.74;85.66;97403.00;4977377;28;20236;-54
2023/04/01 01:38:41;;;;;;;0.53;0.27;;;;;;;8.76;84.38;97399.28;4965524;28;20289;-53
2023/04/01 01:41:10;;;;;;;2.40;0.20;;;;;;;8.78;84.56;97380.88;4969110;28;20260;-52
2023/04/01 01:43:41;;;;;;;0.47;0.17;;;;;;;8.77;83.07;97387.06;4965424;28;20259;-51
2023/04/01 01:46:12;;;;;;;0.87;0.10;;;;;;;8.72;84.87;97390.19;4964743;28;20226;-54
2023/04/01 01:48:42;;;;;;;0.20;0.10;;;;;;;8.73;82.54;97394.41;4964520;28;20603;-53
2023/04/01 01:51:09;;;;;;;2.23;0.20;;;;;;;8.74;83.89;97367.41;4964555;28;20255;-53
2023/04/01 01:53:37;;;;;;;0.50;0.10;;;;;;;8.83;82.28;97368.16;4967413;28;20267;-51
2023/04/01 01:56:05;;;;;;;2.53;0.20;;;;;;;8.77;83.99;97377.47;4979893;28;20581;-53
2023/04/01 01:58:42;;;;;;;0.87;0.23;;;;;;;8.77;83.32;97395.69;4965274;28;20263;-52
2023/04/01 02:01:15;;;;;;;1.30;0.57;;;;;;;8.75;83.11;97379.44;4962718;28;20240;-52
2023/04/01 02:03:45;;;;;;;0.50;0.17;;;;;;;8.74;84.03;97384.78;4968398;28;20238;-52
2023/04/01 02:06:16;;;;;;;1.37;0.10;;;;;;;8.72;84.54;97382.38;4962451;28;20244;-53
2023/04/01 02:08:48;;;;;;;1.03;0.10;;;;;;;8.73;83.65;97380.56;4968658;28;20609;-53
2023/04/01 02:11:18;;;;;;;0.40;0.10;;;;;;;8.69;85.07;97383.50;4963633;28;20234;-52
2023/04/01 02:13:53;;;;;;;0.77;0.27;;;;;;;8.68;84.36;97375.88;4963487;28;20226;-51
2023/04/01 02:16:26;;;;;;;1.73;0.30;;;;;;;8.65;84.13;97384.03;4965137;28;20311;-51
2023/04/01 02:18:57;;;;;;;1.90;0.20;;;;;;;8.63;84.64;97380.78;4966955;28;20230;-53
2023/04/01 02:21:27;;;;;;;1.33;0.20;;;;;;;8.61;84.55;97386.16;4968259;28;20245;-54
2023/04/01 02:23:57;;;;;;;3.37;0.30;;;;;;;8.57;84.56;97379.66;4980934;28;20319;-51
2023/04/01 02:26:26;;;;;;;3.10;0.20;;;;;;;8.60;84.80;97386.31;4967405;28;20231;-52
2023/04/01 02:28:54;;;;;;;2.40;0.30;;;;;;;8.57;84.39;97392.66;4964614;28;20230;-51
2023/04/01 02:31:22;;;;;;;3.23;0.40;;;;;;;8.52;84.64;97393.19;4984676;28;20266;-51
2023/04/01 02:33:49;;;;;;;0.93;0.20;;;;;;;8.49;83.55;97392.69;4983582;28;20231;-54
2023/04/01 02:36:17;;;;;;;0.53;0.20;;;;;;;8.49;83.95;97392.69;4965517;28;20237;-51
2023/04/01 02:38:46;;;;;;;1.13;0.20;;;;;;;8.48;83.90;97384.06;4978631;28;20239;-52
2023/04/01 02:41:14;;;;;;;1.10;0.20;;;;;;;8.53;81.95;97388.78;4966574;28;20234;-51
2023/04/01 02:43:40;;;;;;;1.60;0.20;;;;;;;8.54;83.98;97373.00;4966181;28;20766;-51
2023/04/01 02:46:07;;;;;;;2.67;0.20;;;;;;;8.57;83.19;97379.66;4980174;28;20234;-51
2023/04/01 02:48:34;;;;;;;0.80;0.40;;;;;;;8.55;81.79;97385.03;4967689;28;20230;-52
2023/04/01 02:51:00;;;;;;;1.33;0.30;;;;;;;8.58;81.76;97383.88;4964123;28;20227;-53
2023/04/01 02:53:27;;;;;;;1.73;0.30;;;;;;;8.53;82.35;97396.56;4969897;28;20225;-52
2023/04/01 02:55:53;;;;;;;0.53;0.20;;;;;;;8.61;82.51;97380.16;4963042;28;20236;-52
2023/04/01 02:58:21;;;;;;;0.47;0.10;;;;;;;8.55;82.17;97377.25;4966664;28;20875;-51
2023/04/01 03:00:48;;;;;;;2.57;0.50;;;;;;;8.58;81.76;97365.66;4979248;28;20602;-51
2023/04/01 03:03:14;;;;;;;3.47;0.30;;;;;;;8.59;82.27;97369.09;4964316;28;20234;-52
2023/04/01 03:05:41;;;;;;;1.33;0.30;;;;;;;8.53;83.25;97374.00;4968028;28;20341;-52
2023/04/01 03:08:08;;;;;;;3.13;0.30;;;;;;;8.59;82.55;97364.69;4966792;28;20233;-51
2023/04/01 03:10:35;;;;;;;1.23;0.20;;;;;;;8.53;83.01;97367.97;4962896;28;20246;-54
2023/04/01 03:13:01;;;;;;;2.20;0.30;;;;;;;8.52;85.50;97355.94;4981150;28;20594;-52
2023/04/01 03:15:29;;;;;;;2.10;0.33;;;;;;;8.51;84.30;97373.34;4966888;28;20289;-51
2023/04/01 03:17:56;;;;;;;1.53;0.30;;;;;;;8.54;84.52;97361.78;4963788;28;20694;-51
2023/04/01 03:20:23;;;;;;;2.93;0.20;;;;;;;8.56;83.90;97373.66;4959013;28;20226;-51
2023/04/01 03:22:50;;;;;;;2.33;0.70;;;;;;;8.56;84.76;97352.84;4966481;28;20236;-53
2023/04/01 03:25:16;;;;;;;2.03;0.40;;;;;;;8.60;82.65;97355.91;4965065;28;20238;-51
2023/04/01 03:27:43;;;;;;;2.43;0.50;;;;;;;8.60;83.96;97365.50;4966333;28;20247;-52
2023/04/01 03:32:54;;;;;;;3.97;0.47;;;;;;;8.62;83.78;97360.97;5101086;22;20262;-59
2023/04/01 03:35:21;;;;;;;3.30;0.50;;;;;;;8.59;85.12;97372.50;5020206;28;20229;-59
2023/04/01 03:37:47;;;;;;;5.53;0.87;;;;;;;8.66;84.25;97359.63;5009707;28;20234;-58
2023/04/01 03:40:14;;;;;;;2.10;0.40;;;;;;;8.63;83.87;97372.97;5017431;28;20296;-59
2023/04/01 03:42:40;;;;;;;2.27;0.43;;;;;;;8.67;83.35;97363.84;5018794;28;20321;-59
2023/04/01 03:45:08;;;;;;;5.63;0.70;;;;;;;8.65;83.62;97387.44;4987287;28;20244;-59
2023/04/01 03:47:35;;;;;;;3.47;0.47;;;;;;;8.63;85.11;97362.56;4990597;28;20241;-57
2023/04/01 03:50:04;;;;;;;4.57;0.60;;;;;;;8.63;84.24;97352.16;4979668;28;20312;-59
2023/04/01 03:52:31;;;;;;;4.13;0.70;;;;;;;8.65;83.88;97358.81;4990410;28;20271;-59
2023/04/01 03:54:58;;;;;;;2.87;0.50;;;;;;;8.67;83.18;97362.06;4968586;28;20648;-60
2023/04/01 03:57:24;;;;;;;3.80;0.53;;;;;;;8.69;83.34;97362.69;4991192;28;20264;-59
2023/04/01 03:59:52;;;;;;;4.57;0.73;;;;;;;8.75;82.24;97374.22;4999942;28;20222;-59
2023/04/01 04:02:20;;;;;;;4.13;0.53;;;;;;;8.73;82.90;97367.56;5002136;28;20244;-58
2023/04/01 04:04:47;;;;;;;4.80;0.77;;;;;;;8.73;83.19;97365.78;4968597;28;20247;-59
2023/04/01 04:07:15;;;;;;;5.00;0.90;;;;;;;8.76;82.65;97364.63;4980938;28;20635;-58
2023/04/01 04:10:14;;;;;;;3.30;0.80;;;;;;;8.79;81.51;97367.72;4979624;28;20242;-59
2023/04/01 04:12:41;;;;;;;5.23;0.53;;;;;;;8.78;82.76;97362.66;4984466;28;20250;-59
2023/04/01 04:15:09;;;;;;;2.33;0.47;;;;;;;8.78;82.11;97358.28;4986096;28;20237;-59
2023/04/01 04:17:36;;;;;;;4.00;0.60;;;;;;;8.78;82.65;97349.66;4989215;28;20322;-59
2023/04/01 04:20:03;;;;;;;2.10;0.43;;;;;;;8.83;80.39;97344.75;4985171;28;20244;-59
2023/04/01 04:22:31;;;;;;;2.10;0.50;;;;;;;8.81;80.99;97346.72;4988119;28;20696;-59
2023/04/01 04:24:58;;;;;;;3.20;0.70;;;;;;;8.81;80.07;97337.13;4986190;28;20241;-59
2023/04/01 04:27:24;;;;;;;5.70;0.47;;;;;;;8.81;80.33;97347.53;4986277;28;20313;-59
2023/04/01 04:29:59;;;;;;;2.43;0.50;;;;;;;8.84;80.43;97341.16;4986800;28;20236;-60
2023/04/01 04:32:26;;;;;;;4.80;0.40;;;;;;;8.81;80.69;97352.75;4989971;28;20633;-59
2023/04/01 04:34:52;;;;;;;3.07;0.43;;;;;;;8.82;79.61;97343.13;4981588;28;20227;-58
2023/04/01 04:37:20;;;;;;;2.43;0.40;;;;;;;8.80;80.07;97335.50;4989488;28;20241;-58
2023/04/01 04:39:47;;;;;;;1.97;0.40;;;;;;;8.77;80.39;97350.63;4990218;28;20229;-59
2023/04/01 04:42:14;;;;;;;1.33;0.40;;;;;;;8.79;80.19;97362.50;4986784;28;20245;-59
2023/04/01 04:44:41;;;;;;;10.93;5.23;;;;;;;8.79;79.75;97352.09;4988342;28;20233;-59
2023/04/01 04:47:07;;;;;;;2.50;0.33;;;;;;;8.79;79.82;97359.91;4993527;28;20234;-57
2023/04/01 04:49:34;;;;;;;1.03;0.27;;;;;;;8.81;79.76;97365.75;4974388;28;20694;-57
2023/04/01 04:52:06;;;;;;;1.40;0.43;;;;;;;8.83;78.25;97347.34;4987960;28;20237;-58
2023/04/01 04:54:32;;;;;;;5.00;0.40;;;;;;;8.79;77.83;97339.09;4989162;28;20245;-58
2023/04/01 04:57:02;;;;;;;1.03;0.20;;;;;;;8.73;78.47;97336.34;4985739;28;20552;-59
2023/04/01 04:59:33;;;;;;;2.07;0.30;;;;;;;8.69;78.18;97323.66;4988689;28;20247;-60
2023/04/01 05:02:26;;;;;;;2.23;0.40;;;;;;;8.69;79.25;97338.50;4981458;28;20368;-59
2023/04/01 05:04:53;;;;;;;1.90;0.37;;;;;;;8.71;79.26;97316.50;4986482;28;20222;-59
2023/04/01 05:07:19;;;;;;;1.17;0.20;;;;;;;8.69;78.24;97313.25;4986933;28;20618;-60
2023/04/01 05:09:46;;;;;;;4.40;0.30;;;;;;;8.67;78.67;97311.84;4981838;28;20234;-59
2023/04/01 05:12:15;;;;;;;1.43;0.20;;;;;;;8.70;78.48;97312.28;4986802;28;20593;-61
2023/04/01 05:15:03;;;;;;;1.00;0.20;;;;;;;8.68;78.56;97329.84;4987531;28;20241;-59
2023/04/01 05:17:30;;;;;;;1.70;0.43;;;;;;;8.69;79.09;97308.06;4988413;28;20698;-59
2023/04/01 05:19:57;;;;;;;2.27;0.30;;;;;;;8.69;78.24;97305.47;4982795;28;20301;-59
2023/04/01 05:22:25;;;;;;;1.03;0.40;;;;;;;8.68;78.22;97310.84;4990768;28;20240;-59
2023/04/01 05:24:52;;;;;;;2.53;0.47;;;;;;;8.68;79.22;97303.03;5002397;28;20225;-58
2023/04/01 05:27:21;;;;;;;2.63;0.30;;;;;;;8.70;79.30;97307.09;4985546;28;20701;-59
2023/04/01 05:29:47;;;;;;;0.87;0.40;;;;;;;8.70;79.05;97309.69;4985447;28;20233;-59
2023/04/01 05:32:37;;;;;;;1.60;0.40;;;;;;;8.70;79.59;97304.47;4946771;28;20241;-59
2023/04/01 05:35:05;;;;;;;2.87;0.30;;;;;;;8.74;79.55;97298.94;4963743;28;20235;-59
2023/04/01 05:37:31;;;;;;;4.30;0.50;;;;;;;8.75;80.06;97314.38;4990639;28;20229;-58
2023/04/01 05:39:59;;;;;;;1.13;0.63;;;;;;;8.76;81.89;97309.97;4982898;28;20237;-58
2023/04/01 05:42:27;;;;;;;2.73;0.70;;;;;;;8.67;82.70;97324.84;4972096;28;20248;-59
2023/04/01 05:44:55;;;;;;;5.00;0.37;;;;;;;8.55;85.71;97309.63;4979835;28;20237;-59
2023/04/01 05:47:40;;;;;;;14.07;12.77;;;;;;;8.46;88.07;97317.59;4984474;28;20305;-59
2023/04/01 05:50:07;;;;;;;4.63;2.23;;;;;;;8.36;90.74;97313.41;4981826;28;20611;-59
2023/04/01 05:52:34;;;;;;;2.70;0.60;;;;;;;8.26;89.27;97308.41;4992052;28;20317;-59
2023/04/01 05:55:00;;;;;;;2.87;1.13;;;;;;;8.25;90.99;97308.59;4983622;28;20222;-59
2023/04/01 05:57:30;;;;;;;1.20;0.60;;;;;;;8.21;92.37;97317.69;4987774;28;20284;-58
2023/04/01 05:59:56;;;;;;;2.73;0.33;;;;;;;8.17;93.31;97304.22;4985886;28;20267;-58
2023/04/01 06:02:23;;;;;;;1.17;0.40;;;;;;;8.19;92.41;97310.06;4990656;28;20242;-57
2023/04/01 06:04:50;;;;;;;3.23;0.60;;;;;;;8.13;94.18;97305.53;4988401;28;20232;-58
2023/04/01 06:07:18;;;;;;;4.10;0.40;;;;;;;8.15;92.81;97298.38;4986492;28;20321;-59
2023/04/01 06:09:45;;;;;;;1.63;0.30;;;;;;;8.14;92.37;97299.34;4975643;28;20672;-58
2023/04/01 06:12:30;;;;;;;2.10;0.30;;;;;;;8.16;93.24;97300.00;4989617;28;20324;-59
2023/04/01 06:15:12;;;;;;;2.17;0.40;;;;;;;8.23;92.01;97311.34;4986871;28;20229;-59
2023/04/01 06:17:53;;;;;;;3.13;0.90;;;;;;;8.20;93.05;97323.88;4990714;28;20740;-58
2023/04/01 06:20:26;;;;;;;3.23;0.50;;;;;;;8.25;91.25;97300.78;4973655;28;20224;-59
2023/04/01 06:23:09;;;;;;;2.50;0.57;;;;;;;8.28;91.77;97303.06;4981490;28;20238;-59
2023/04/01 06:25:57;;;;;;;1.73;0.60;;;;;;;8.34;92.55;97317.16;4978433;28;20234;-60
2023/04/01 06:29:09;;;;;;;3.80;0.60;;;;;;;8.28;92.61;97324.66;4988417;28;20236;-59
2023/04/01 06:31:56;;;;;;;1.90;0.40;;;;;;;8.32;93.65;97334.72;4985042;28;20930;-60
2023/04/01 06:34:45;;;;;;;2.03;0.53;;;;;;;8.39;91.60;97314.84;4984858;28;20260;-60
2023/04/01 06:37:38;;;;;;;1.73;0.60;;;;;;;8.33;94.25;97318.13;4986299;28;20515;-58
2023/04/01 06:40:18;;;;;;;1.47;0.60;;;;;;;8.30;94.47;97336.66;4971723;28;20470;-59
2023/04/01 06:43:00;;;;;;;1.50;0.37;;;;;;;8.29;93.76;97338.47;4981719;28;20641;-59
2023/04/01 06:46:01;;;;;;;3.80;0.50;;;;;;;8.32;95.55;97319.94;4970366;28;20382;-57
2023/04/01 06:49:18;;;;;;;1.77;0.30;;;;;;;8.37;94.00;97322.00;4953282;28;20226;-60
2023/04/01 06:52:00;;;;;;;3.50;0.60;;;;;;;8.41;95.38;97323.28;4985479;28;20243;-57
2023/04/01 06:55:22;;;;;;;2.27;1.27;;;;;;;8.25;97.47;97339.78;4922555;29;20244;-59
2023/04/01 06:58:14;;;;;;;2.33;1.30;;;;;;;8.27;97.41;97319.63;4931419;29;20235;-58
2023/04/01 07:00:45;;;;;;;13.93;7.30;;;;;;;8.28;98.27;97334.25;4968959;28;20243;-58
2023/04/01 07:03:21;;;;;;;2.50;0.68;;;;;;;8.23;96.32;97321.75;4982450;28;20791;-60
2023/04/01 07:05:50;;;;;;;3.37;0.43;;;;;;;8.35;97.76;97330.00;5003304;28;20240;-60
2023/04/01 07:08:22;;;;;;;4.17;1.23;;;;;;;8.42;98.69;97336.16;5000964;28;20295;-60
2023/04/01 07:10:54;;;;;;;2.77;1.63;;;;;;;8.37;97.24;97341.03;4988233;28;20401;-60
2023/04/01 07:13:46;;;;;;;2.03;0.60;;;;;;;8.40;97.12;97338.09;4987028;28;20237;-60
2023/04/01 07:16:20;;;;;;;4.63;1.90;;;;;;;8.41;98.79;97341.50;4984346;28;20233;-58
2023/04/01 07:18:53;;;;;;;2.70;0.60;;;;;;;8.28;98.57;97355.84;5001096;28;20237;-60
2023/04/01 07:21:34;;;;;;;5.00;1.50;;;;;;;8.23;100.00;97345.13;4995329;28;20648;-60
2023/04/01 07:24:07;;;;;;;8.80;4.10;;;;;;;8.27;98.54;97349.03;4973686;28;20221;-60
2023/04/01 07:26:43;;;;;;;3.33;0.83;;;;;;;8.21;99.48;97339.28;4993327;28;20232;-60
2023/04/01 07:29:16;;;;;;;3.37;1.10;;;;;;;8.40;100.00;97363.28;4982637;28;20239;-60
2023/04/01 07:32:24;;;;;;;4.53;0.87;;;;;;;8.45;99.23;97370.59;4987810;28;20238;-60
2023/04/01 07:35:07;;;;;;;17.43;10.30;;;;;;;8.52;98.04;97351.56;4974919;28;20312;-58
2023/04/01 07:37:46;;;;;;;7.97;4.50;;;;;;;8.32;99.49;97365.91;4985066;28;20228;-60
2023/04/01 07:40:23;;;;;;;4.50;0.70;;;;;;;8.31;100.00;97361.69;4990947;28;20237;-60
2023/04/01 07:43:06;;;;;;;3.23;0.80;;;;;;;8.25;100.00;97386.56;4989518;28;20240;-60
2023/04/01 07:45:41;;;;;;;5.10;1.13;;;;;;;8.33;100.00;97386.56;4981661;28;20302;-60
2023/04/01 07:48:24;;;;;;;6.50;1.87;;;;;;;8.33;100.00;97378.75;4983035;28;20431;-60
2023/04/01 07:50:58;;;;;;;7.83;5.10;;;;;;;8.24;100.00;97390.16;4989333;28;20340;-59
2023/04/01 07:53:34;;;;;;;1.63;0.63;;;;;;;8.27;100.00;97387.22;4985049;28;20284;-60
2023/04/01 07:56:07;;;;;;;2.73;0.67;;;;;;;8.35;100.00;97402.81;4988668;28;20243;-60
2023/04/01 07:58:49;;;;;;;3.07;0.70;;;;;;;8.33;100.00;97399.56;5000186;28;20244;-60
2023/04/01 08:01:45;;;;;;;10.63;5.63;;;;;;;8.20;100.00;97415.66;4981064;28;20377;-60
2023/04/01 08:04:24;;;;;;;8.90;3.33;;;;;;;8.33;100.00;97399.56;4982502;28;21303;-62
2023/04/01 08:06:58;;;;;;;12.17;5.70;;;;;;;8.37;100.00;97400.03;4985822;28;20230;-61
2023/04/01 08:09:34;;;;;;;4.73;1.50;;;;;;;8.41;100.00;97404.72;4976081;28;20236;-58
2023/04/01 08:12:48;;;;;;;8.47;1.97;;;;;;;8.52;100.00;97394.94;4982120;28;20249;-60
2023/04/01 08:16:00;;;;;;;3.63;1.00;;;;;;;8.49;100.00;97405.69;4986581;28;20237;-59
2023/04/01 08:18:46;;;;;;;3.80;0.87;;;;;;;8.63;99.44;97399.78;4990736;28;20239;-59
2023/04/01 08:21:17;;;;;;;5.07;1.40;;;;;;;8.62;100.00;97408.56;4985620;28;20238;-60
2023/04/01 08:23:46;;;;;;;3.03;1.70;;;;;;;8.41;100.00;97428.13;4989853;28;20234;-59
2023/04/01 08:26:24;;;;;;;14.03;8.17;;;;;;;8.57;100.00;97419.50;4987094;28;20218;-59
2023/04/01 08:28:58;;;;;;;3.90;0.83;;;;;;;8.46;100.00;97412.03;4988366;28;20225;-59
2023/04/01 08:31:33;;;;;;;4.23;1.80;;;;;;;8.48;100.00;97417.06;4994452;28;20601;-59
2023/04/01 08:34:04;;;;;;;2.50;0.60;;;;;;;8.45;100.00;97417.41;4984612;28;20229;-59
2023/04/01 08:36:34;;;;;;;4.00;0.70;;;;;;;8.50;100.00;97417.72;4987764;28;20226;-59
2023/04/01 08:39:19;;;;;;;1.60;0.43;;;;;;;8.54;100.00;97432.00;4999636;28;20239;-58
2023/04/01 08:42:11;;;;;;;4.63;0.60;;;;;;;8.63;100.00;97430.22;4985029;28;20230;-59
2023/04/01 08:45:14;;;;;;;5.97;3.17;;;;;;;8.79;100.00;97434.53;4979679;28;20218;-59
2023/04/01 08:48:08;;;;;;;2.27;0.53;;;;;;;8.73;100.00;97435.19;4971114;28;20227;-59
2023/04/01 08:50:54;;;;;;;1.23;0.47;;;;;;;8.75;100.00;97423.66;4978673;28;20278;-59
2023/04/01 08:53:44;;;;;;;1.03;0.30;;;;;;;8.51;100.00;97432.34;4980202;28;20315;-60
2023/04/01 08:56:18;;;;;;;2.37;0.30;;;;;;;8.59;100.00;97424.50;4978738;28;20226;-60
2023/04/01 08:59:16;;;;;;;4.30;0.50;;;;;;;8.50;100.00;97449.75;4982210;28;20270;-61
2023/04/01 09:01:53;;;;;;;1.43;0.60;;;;;;;8.47;100.00;97444.84;4984717;28;20235;-61
2023/04/01 09:04:59;;;;;;;1.47;0.40;;;;;;;8.49;100.00;97455.94;4986505;28;20787;-60
2023/04/01 09:07:40;;;;;;;1.23;0.40;;;;;;;8.49;100.00;97442.94;4998245;28;20235;-60
2023/04/01 09:10:37;;;;;;;1.10;0.63;;;;;;;8.61;100.00;97422.56;4983327;28;20238;-59
2023/04/01 09:13:34;;;;;;;0.30;0.30;;;;;;;8.47;100.00;97418.84;4980957;28;20230;-61
2023/04/01 09:16:20;;;;;;;0.83;0.20;;;;;;;8.46;100.00;97452.84;4975406;28;20229;-60
2023/04/01 09:19:16;;;;;;;2.43;0.63;;;;;;;8.49;100.00;97455.94;5000165;28;20254;-60
2023/04/01 09:21:59;;;;;;;1.30;0.33;;;;;;;8.50;100.00;97447.16;4985539;28;20225;-60
2023/04/01 09:24:43;;;;;;;4.93;0.90;;;;;;;8.51;100.00;97450.53;4980715;28;20240;-61
2023/04/01 09:27:20;;;;;;;0.80;0.37;;;;;;;8.60;100.00;97443.56;4986450;28;20248;-60
2023/04/01 09:30:20;;;;;;;1.17;0.70;;;;;;;8.56;100.00;97463.88;4986850;28;20226;-61
2023/04/01 09:33:10;;;;;;;1.00;0.30;;;;;;;8.61;100.00;97466.78;4979278;28;20234;-59
2023/04/01 09:35:46;;;;;;;0.70;0.40;;;;;;;8.75;100.00;97467.91;4978248;28;20324;-60
2023/04/01 09:38:22;;;;;;;1.00;0.23;;;;;;;8.67;100.00;97460.13;4997566;28;20703;-60
2023/04/01 09:40:56;;;;;;;3.07;0.40;;;;;;;8.63;100.00;97464.03;5008263;28;20245;-60
2023/04/01 09:44:02;;;;;;;1.70;0.40;;;;;;;8.67;100.00;97458.31;4989672;28;20292;-61
2023/04/01 09:46:44;;;;;;;0.97;0.43;;;;;;;8.69;100.00;97463.34;4986202;28;20319;-60
2023/04/01 09:49:37;;;;;;;0.63;0.40;;;;;;;8.49;100.00;97468.09;4989677;28;20595;-60
2023/04/01 09:52:17;;;;;;;1.80;0.77;;;;;;;8.72;100.00;97478.63;4995641;28;20234;-59
2023/04/01 09:54:59;;;;;;;1.47;0.70;;;;;;;8.59;100.00;97463.53;4977597;28;20232;-59
2023/04/01 09:57:50;;;;;;;2.37;0.57;;;;;;;8.75;100.00;97454.06;4985636;28;20289;-60
2023/04/01 10:01:04;;;;;;;2.40;0.50;;;;;;;8.81;100.00;97463.78;4980900;28;20696;-60
2023/04/01 10:04:12;;;;;;;2.00;0.40;;;;;;;9.07;100.00;97480.94;4980551;28;20247;-61
2023/04/01 10:07:21;;;;;;;1.27;0.50;;;;;;;9.08;100.00;97466.94;4984685;28;20726;-61
2023/04/01 10:10:22;;;;;;;2.70;0.40;;;;;;;9.14;100.00;97468.88;4985682;28;20231;-60
2023/04/01 10:13:22;;;;;;;1.07;0.40;;;;;;;9.21;100.00;97467.22;4988646;28;20233;-60
2023/04/01 10:16:29;;;;;;;0.97;0.40;;;;;;;9.19;99.84;97476.97;4992605;28;20351;-60
2023/04/01 10:19:16;;;;;;;1.13;0.47;;;;;;;9.12;100.00;97482.03;4893187;28;20287;-61
2023/04/01 10:22:10;;;;;;;3.10;0.43;;;;;;;9.13;100.00;97467.25;4992137;28;20242;-61
2023/04/01 10:25:14;;;;;;;4.40;0.70;;;;;;;8.97;100.00;97476.75;4987807;28;20674;-61
2023/04/01 10:28:03;;;;;;;2.50;0.40;;;;;;;8.99;100.00;97476.59;4983862;28;20344;-60
2023/04/01 10:31:33;;;;;;;2.27;0.80;;;;;;;9.31;100.00;97474.81;4984158;28;20245;-59
2023/04/01 10:34:14;;;;;;;2.00;0.77;;;;;;;9.22;99.48;97470.59;5000730;28;20238;-59
2023/04/01 10:36:49;;;;;;;2.08;0.80;;;;;;;9.39;100.00;97487.78;4991658;28;20811;-59
2023/04/01 10:40:02;;;;;;;0.93;0.40;;;;;;;9.33;99.95;97485.84;4987738;28;20234;-58
2023/04/01 10:43:24;;;;;;;0.80;0.40;;;;;;;9.25;99.66;97468.50;4989885;28;20248;-59
2023/04/01 10:46:33;;;;;;;1.70;0.57;;;;;;;9.24;100.00;97485.09;4987150;28;20238;-59
2023/04/01 10:49:33;;;;;;;3.90;0.67;;;;;;;9.23;100.00;97474.84;4981317;28;20226;-59
2023/04/01 10:52:42;;;;;;;1.53;0.70;;;;;;;9.10;100.00;97501.44;4998838;28;20324;-60
2023/04/01 10:56:12;;;;;;;2.60;0.53;;;;;;;9.08;100.00;97500.78;4992014;28;20237;-60
2023/04/01 10:59:21;;;;;;;2.03;0.70;;;;;;;9.15;100.00;97497.31;4920820;29;20248;-59
2023/04/01 11:02:37;;;;;;;3.77;2.13;;;;;;;9.26;100.00;97495.31;4922371;28;20235;-60
2023/04/01 11:05:59;;;;;;;5.53;2.23;;;;;;;9.17;100.00;97491.97;4983716;28;20426;-58
2023/04/01 11:09:03;;;;;;;1.83;1.20;;;;;;;9.27;100.00;97487.38;4973704;28;20627;-59
2023/04/01 11:12:05;;;;;;;1.93;0.60;;;;;;;9.13;100.00;97486.28;4988507;28;20242;-58
2023/04/01 11:15:20;;;;;;;1.60;0.53;;;;;;;9.18;100.00;97495.38;4988523;28;20229;-59
2023/04/01 11:18:26;;;;;;;3.30;0.50;;;;;;;8.73;100.00;97497.63;4992099;28;20234;-56
2023/04/01 11:21:23;;;;;;;2.80;0.63;;;;;;;8.94;100.00;97497.91;4977304;28;20236;-59
2023/04/01 11:24:17;;;;;;;1.80;0.60;;;;;;;8.58;100.00;97500.94;4974431;28;20241;-60
2023/04/01 11:27:16;;;;;;;33.70;11.20;;;;;;;8.57;100.00;97504.50;4986525;28;20585;-60
2023/04/01 11:30:23;;;;;;;4.27;2.40;;;;;;;8.65;100.00;97506.28;4991117;28;20237;-61
2023/04/01 11:32:58;;;;;;;1.43;0.60;;;;;;;8.74;100.00;97492.28;4980051;28;20248;-58
2023/04/01 11:35:39;;;;;;;0.70;0.40;;;;;;;8.74;100.00;97499.25;4981678;28;20233;-59
2023/04/01 11:38:27;;;;;;;2.73;0.60;;;;;;;8.78;100.00;97497.97;4975652;28;20887;-61
2023/04/01 11:41:03;;;;;;;2.77;2.47;;;;;;;8.94;100.00;97512.72;4986870;28;20301;-58
2023/04/01 11:43:43;;;;;;;5.60;4.97;;;;;;;9.10;100.00;97507.44;4989754;28;20223;-59
2023/04/01 11:46:31;;;;;;;0.73;0.60;;;;;;;8.87;100.00;97504.75;4976160;28;20620;-59
2023/04/01 11:49:08;;;;;;;1.33;0.40;;;;;;;8.86;100.00;97526.56;4990675;28;20238;-59
2023/04/01 11:52:02;;;;;;;1.30;0.63;;;;;;;9.07;100.00;97514.78;4983910;28;20583;-61
2023/04/01 11:54:42;;;;;;;0.40;0.33;;;;;;;8.99;100.00;97511.22;4978015;28;20236;-59
2023/04/01 11:57:36;;;;;;;0.37;0.30;;;;;;;9.01;100.00;97504.06;4983325;28;20230;-59
2023/04/01 12:00:19;;;;;;;0.33;0.33;;;;;;;8.74;100.00;97514.88;4972240;28;20226;-60
2023/04/01 12:03:03;;;;;;;1.17;0.73;;;;;;;8.78;100.00;97510.97;4982158;28;20711;-60
2023/04/01 12:05:41;;;;;;;0.90;0.50;;;;;;;8.79;100.00;97517.78;4979725;28;20246;-60
2023/04/01 12:08:21;;;;;;;7.80;3.80;;;;;;;8.77;100.00;97519.75;4980567;28;20232;-60
2023/04/01 12:10:56;;;;;;;2.63;0.70;;;;;;;8.81;100.00;97508.84;4983286;28;20238;-60
2023/04/01 12:13:36;;;;;;;1.87;0.70;;;;;;;8.73;100.00;97515.84;4979172;28;20260;-60
2023/04/01 12:16:16;;;;;;;1.73;0.50;;;;;;;8.90;100.00;97514.84;4976997;28;20706;-60
2023/04/01 12:18:51;;;;;;;0.83;0.30;;;;;;;8.88;100.00;97527.19;4983264;28;20230;-60
2023/04/01 12:21:25;;;;;;;3.03;0.60;;;;;;;8.76;100.00;97518.13;4982180;28;20736;-58
2023/04/01 12:24:07;;;;;;;2.40;0.53;;;;;;;8.75;100.00;97526.91;4980539;28;20571;-60
2023/04/01 12:26:56;;;;;;;0.70;0.40;;;;;;;8.92;100.00;97525.88;4978902;28;20233;-59
2023/04/01 12:29:44;;;;;;;1.20;0.50;;;;;;;8.96;100.00;97524.56;4978897;28;20242;-59
2023/04/01 12:32:24;;;;;;;1.37;0.80;;;;;;;9.01;100.00;97530.09;4979644;28;20231;-60
2023/04/01 12:35:06;;;;;;;0.70;0.57;;;;;;;9.08;100.00;97535.44;4981426;28;20264;-60
2023/04/01 12:37:40;;;;;;;0.60;0.50;;;;;;;9.07;100.00;97531.19;4978947;28;20824;-60